sensor_id;sensor_type;location;lat;lon;timestamp;temperature;humidity
26272;DHT22;13997;48.902;12.472;2023-07-09T00:02:15;461.70;2380.80
26272;DHT22;13997;48.902;12.472;2023-07-09T00:04:41;461.70;2380.80
26272;DHT22;13997;48.902;12.472;2023-07-09T00:09:45;461.70;2380.80
26272;DHT22;13997;48.902;12.472;2023-07-09T00:12:14;461.70;2380.80
26272;DHT22;13997;48.902;12.472;2023-07-09T00:14:39;461.60;2380.80
26272;DHT22;13997;48.902;12.472;2023-07-09T00:17:15;461.50;2380.80
26272;DHT22;13997;48.902;12.472;2023-07-09T00:19:43;461.40;2380.80
26272;DHT22;13997;48.902;12.472;2023-07-09T00:22:15;461.40;2380.80
26272;DHT22;13997;48.902;12.472;2023-07-09T00:24:46;461.30;2380.80
26272;DHT22;13997;48.902;12.472;2023-07-09T00:27:14;461.30;2380.80
26272;DHT22;13997;48.902;12.472;2023-07-09T00:29:42;461.30;2380.80
26272;DHT22;13997;48.902;12.472;2023-07-09T00:32:15;461.40;2380.80
26272;DHT22;13997;48.902;12.472;2023-07-09T00:34:43;461.40;2380.80
26272;DHT22;13997;48.902;12.472;2023-07-09T00:37:18;461.30;2380.80
26272;DHT22;13997;48.902;12.472;2023-07-09T00:39:45;461.30;2380.80
26272;DHT22;13997;48.902;12.472;2023-07-09T00:42:20;461.30;2380.80
26272;DHT22;13997;48.902;12.472;2023-07-09T00:44:53;461.30;2380.80
26272;DHT22;13997;48.902;12.472;2023-07-09T00:47:41;461.30;2380.80
26272;DHT22;13997;48.902;12.472;2023-07-09T00:50:21;461.30;2380.80
26272;DHT22;13997;48.902;12.472;2023-07-09T00:52:59;461.20;2380.80
26272;DHT22;13997;48.902;12.472;2023-07-09T00:55:31;461.20;2380.80
26272;DHT22;13997;48.902;12.472;2023-07-09T00:58:01;461.20;2380.80
26272;DHT22;13997;48.902;12.472;2023-07-09T01:00:33;461.10;2380.80
26272;DHT22;13997;48.902;12.472;2023-07-09T01:03:09;461.20;2380.80
26272;DHT22;13997;48.902;12.472;2023-07-09T01:05:37;461.10;2380.80
26272;DHT22;13997;48.902;12.472;2023-07-09T01:08:02;461.10;2380.80
26272;DHT22;13997;48.902;12.472;2023-07-09T01:10:29;461.10;2380.80
26272;DHT22;13997;48.902;12.472;2023-07-09T01:12:55;461.00;2380.80
26272;DHT22;13997;48.902;12.472;2023-07-09T01:15:20;461.00;2380.80
26272;DHT22;13997;48.902;12.472;2023-07-09T01:17:46;461.00;2380.80
26272;DHT22;13997;48.902;12.472;2023-07-09T01:20:18;461.00;2380.80
26272;DHT22;13997;48.902;12.472;2023-07-09T01:22:50;461.00;2380.80
26272;DHT22;13997;48.902;12.472;2023-07-09T01:25:16;460.90;2380.80
26272;DHT22;13997;48.902;12.472;2023-07-09T01:27:45;460.80;2380.80
26272;DHT22;13997;48.902;12.472;2023-07-09T01:30:35;460.80;2380.80
26272;DHT22;13997;48.902;12.472;2023-07-09T01:33:02;436.10;2355.20
26272;DHT22;13997;48.902;12.472;2023-07-09T01:35:30;436.10;2355.20
26272;DHT22;13997;48.902;12.472;2023-07-09T01:37:56;436.10;2355.20
26272;DHT22;13997;48.902;12.472;2023-07-09T01:40:23;436.10;2355.20
26272;DHT22;13997;48.902;12.472;2023-07-09T01:42:50;436.00;2355.20
26272;DHT22;13997;48.902;12.472;2023-07-09T01:45:17;436.00;2355.20
26272;DHT22;13997;48.902;12.472;2023-07-09T01:47:43;436.00;2355.20
26272;DHT22;13997;48.902;12.472;2023-07-09T01:50:10;435.90;2355.20
26272;DHT22;13997;48.902;12.472;2023-07-09T01:52:38;435.90;2355.20
26272;DHT22;13997;48.902;12.472;2023-07-09T01:55:05;435.90;2355.20
26272;DHT22;13997;48.902;12.472;2023-07-09T01:57:31;435.90;2355.20
26272;DHT22;13997;48.902;12.472;2023-07-09T02:00:10;435.90;2355.20
26272;DHT22;13997;48.902;12.472;2023-07-09T02:02:37;435.90;2355.20
26272;DHT22;13997;48.902;12.472;2023-07-09T02:05:04;435.80;2355.20
26272;DHT22;13997;48.902;12.472;2023-07-09T02:07:30;435.80;2355.20
26272;DHT22;13997;48.902;12.472;2023-07-09T02:09:57;435.80;2355.20
26272;DHT22;13997;48.902;12.472;2023-07-09T02:12:22;435.70;2355.20
26272;DHT22;13997;48.902;12.472;2023-07-09T02:14:48;435.70;2355.20
26272;DHT22;13997;48.902;12.472;2023-07-09T02:17:14;435.60;2355.20
26272;DHT22;13997;48.902;12.472;2023-07-09T02:19:40;435.60;2355.20
26272;DHT22;13997;48.902;12.472;2023-07-09T02:22:07;435.60;2355.20
26272;DHT22;13997;48.902;12.472;2023-07-09T02:24:32;435.60;2355.20
26272;DHT22;13997;48.902;12.472;2023-07-09T02:27:00;435.50;2355.20
26272;DHT22;13997;48.902;12.472;2023-07-09T02:29:27;435.50;2355.20
26272;DHT22;13997;48.902;12.472;2023-07-09T02:31:56;435.50;2355.20
26272;DHT22;13997;48.902;12.472;2023-07-09T02:34:22;435.50;2355.20
26272;DHT22;13997;48.902;12.472;2023-07-09T02:36:52;435.50;2355.20
26272;DHT22;13997;48.902;12.472;2023-07-09T02:39:19;435.50;2355.20
26272;DHT22;13997;48.902;12.472;2023-07-09T02:41:45;435.50;2355.20
26272;DHT22;13997;48.902;12.472;2023-07-09T02:44:10;435.40;2355.20
26272;DHT22;13997;48.902;12.472;2023-07-09T02:46:36;435.40;2355.20
26272;DHT22;13997;48.902;12.472;2023-07-09T02:49:03;435.30;2355.20
26272;DHT22;13997;48.902;12.472;2023-07-09T02:51:30;435.30;2355.20
26272;DHT22;13997;48.902;12.472;2023-07-09T02:53:57;435.30;2355.20
26272;DHT22;13997;48.902;12.472;2023-07-09T02:56:23;435.30;2355.20
26272;DHT22;13997;48.902;12.472;2023-07-09T02:58:50;435.30;2355.20
26272;DHT22;13997;48.902;12.472;2023-07-09T03:01:16;435.30;2355.20
26272;DHT22;13997;48.902;12.472;2023-07-09T03:03:42;435.20;2355.20
26272;DHT22;13997;48.902;12.472;2023-07-09T03:06:08;435.20;2355.20
26272;DHT22;13997;48.902;12.472;2023-07-09T03:08:33;410.50;2355.20
26272;DHT22;13997;48.902;12.472;2023-07-09T03:11:00;410.50;2355.20
26272;DHT22;13997;48.902;12.472;2023-07-09T03:13:25;410.40;2355.20
26272;DHT22;13997;48.902;12.472;2023-07-09T03:15:55;410.40;2355.20
26272;DHT22;13997;48.902;12.472;2023-07-09T03:18:21;410.40;2355.20
26272;DHT22;13997;48.902;12.472;2023-07-09T03:20:47;410.40;2355.20
26272;DHT22;13997;48.902;12.472;2023-07-09T03:23:12;410.40;2355.20
26272;DHT22;13997;48.902;12.472;2023-07-09T03:25:41;410.40;2355.20
26272;DHT22;13997;48.902;12.472;2023-07-09T03:28:07;410.40;2355.20
26272;DHT22;13997;48.902;12.472;2023-07-09T03:30:33;410.40;2355.20
26272;DHT22;13997;48.902;12.472;2023-07-09T03:32:58;410.40;2355.20
26272;DHT22;13997;48.902;12.472;2023-07-09T03:35:26;410.40;2355.20
26272;DHT22;13997;48.902;12.472;2023-07-09T03:37:51;410.30;2355.20
26272;DHT22;13997;48.902;12.472;2023-07-09T03:40:21;410.30;2355.20
26272;DHT22;13997;48.902;12.472;2023-07-09T03:42:48;410.20;2355.20
26272;DHT22;13997;48.902;12.472;2023-07-09T03:45:15;410.20;2355.20
26272;DHT22;13997;48.902;12.472;2023-07-09T03:47:40;410.10;2355.20
26272;DHT22;13997;48.902;12.472;2023-07-09T03:50:10;410.10;2355.20
26272;DHT22;13997;48.902;12.472;2023-07-09T03:52:35;410.10;2355.20
26272;DHT22;13997;48.902;12.472;2023-07-09T03:55:01;410.10;2355.20
26272;DHT22;13997;48.902;12.472;2023-07-09T03:57:32;410.10;2355.20
26272;DHT22;13997;48.902;12.472;2023-07-09T03:59:58;410.10;2355.20
26272;DHT22;13997;48.902;12.472;2023-07-09T04:02:24;410.10;2355.20
26272;DHT22;13997;48.902;12.472;2023-07-09T04:04:49;410.10;2355.20
26272;DHT22;13997;48.902;12.472;2023-07-09T04:07:15;410.10;2355.20
26272;DHT22;13997;48.902;12.472;2023-07-09T04:09:41;410.10;2355.20
26272;DHT22;13997;48.902;12.472;2023-07-09T04:12:08;410.10;2355.20
26272;DHT22;13997;48.902;12.472;2023-07-09T04:14:35;410.10;2355.20
26272;DHT22;13997;48.902;12.472;2023-07-09T04:17:01;410.10;2355.20
26272;DHT22;13997;48.902;12.472;2023-07-09T04:19:26;410.10;2355.20
26272;DHT22;13997;48.902;12.472;2023-07-09T04:21:52;410.10;2355.20
26272;DHT22;13997;48.902;12.472;2023-07-09T04:24:19;410.10;2355.20
26272;DHT22;13997;48.902;12.472;2023-07-09T04:26:45;410.20;2355.20
26272;DHT22;13997;48.902;12.472;2023-07-09T04:29:11;410.30;2355.20
26272;DHT22;13997;48.902;12.472;2023-07-09T04:31:37;410.30;2355.20
26272;DHT22;13997;48.902;12.472;2023-07-09T04:34:03;410.40;2355.20
26272;DHT22;13997;48.902;12.472;2023-07-09T04:36:29;410.40;2355.20
26272;DHT22;13997;48.902;12.472;2023-07-09T04:38:54;410.50;2355.20
26272;DHT22;13997;48.902;12.472;2023-07-09T04:41:20;410.50;2355.20
26272;DHT22;13997;48.902;12.472;2023-07-09T04:43:45;435.20;2355.20
26272;DHT22;13997;48.902;12.472;2023-07-09T04:46:11;435.20;2355.20
26272;DHT22;13997;48.902;12.472;2023-07-09T04:48:42;435.30;2355.20
26272;DHT22;13997;48.902;12.472;2023-07-09T04:51:08;435.30;2355.20
26272;DHT22;13997;48.902;12.472;2023-07-09T04:53:34;435.40;2355.20
26272;DHT22;13997;48.902;12.472;2023-07-09T04:55:59;435.50;2355.20
26272;DHT22;13997;48.902;12.472;2023-07-09T04:58:26;435.60;2355.20
26272;DHT22;13997;48.902;12.472;2023-07-09T05:00:51;435.70;2355.20
26272;DHT22;13997;48.902;12.472;2023-07-09T05:03:18;435.80;2355.20
26272;DHT22;13997;48.902;12.472;2023-07-09T05:05:45;436.00;2355.20
26272;DHT22;13997;48.902;12.472;2023-07-09T05:08:12;436.10;2355.20
26272;DHT22;13997;48.902;12.472;2023-07-09T05:10:42;460.90;2380.80
26272;DHT22;13997;48.902;12.472;2023-07-09T05:13:08;461.00;2380.80
26272;DHT22;13997;48.902;12.472;2023-07-09T05:15:33;461.00;2380.80
26272;DHT22;13997;48.902;12.472;2023-07-09T05:17:59;461.20;2380.80
26272;DHT22;13997;48.902;12.472;2023-07-09T05:20:24;461.30;2380.80
26272;DHT22;13997;48.902;12.472;2023-07-09T05:22:50;461.60;2380.80
26272;DHT22;13997;48.902;12.472;2023-07-09T05:25:16;461.70;2380.80
26272;DHT22;13997;48.902;12.472;2023-07-09T05:27:42;486.40;2380.80
26272;DHT22;13997;48.902;12.472;2023-07-09T05:30:08;486.50;2380.80
26272;DHT22;13997;48.902;12.472;2023-07-09T05:32:36;486.60;2380.80
26272;DHT22;13997;48.902;12.472;2023-07-09T05:35:02;486.70;2380.80
26272;DHT22;13997;48.902;12.472;2023-07-09T05:37:27;486.80;2380.80
26272;DHT22;13997;48.902;12.472;2023-07-09T05:39:53;487.00;2380.80
26272;DHT22;13997;48.902;12.472;2023-07-09T05:42:19;487.00;2380.80
26272;DHT22;13997;48.902;12.472;2023-07-09T05:44:44;487.10;2380.80
26272;DHT22;13997;48.902;12.472;2023-07-09T05:47:10;487.20;2380.80
26272;DHT22;13997;48.902;12.472;2023-07-09T05:49:35;512.00;2380.80
26272;DHT22;13997;48.902;12.472;2023-07-09T05:52:01;512.10;2380.80
26272;DHT22;13997;48.902;12.472;2023-07-09T05:54:26;512.10;2380.80
26272;DHT22;13997;48.902;12.472;2023-07-09T05:56:52;512.10;2380.80
26272;DHT22;13997;48.902;12.472;2023-07-09T05:59:17;512.20;2380.80
26272;DHT22;13997;48.902;12.472;2023-07-09T06:01:43;512.40;2380.80
26272;DHT22;13997;48.902;12.472;2023-07-09T06:04:09;512.70;2380.80
26272;DHT22;13997;48.902;12.472;2023-07-09T06:06:34;512.80;2380.80
26272;DHT22;13997;48.902;12.472;2023-07-09T06:09:00;537.70;2406.40
26272;DHT22;13997;48.902;12.472;2023-07-09T06:11:25;537.80;2406.40
26272;DHT22;13997;48.902;12.472;2023-07-09T06:13:51;538.00;2406.40
26272;DHT22;13997;48.902;12.472;2023-07-09T06:16:17;538.20;2406.40
26272;DHT22;13997;48.902;12.472;2023-07-09T06:18:43;538.50;2406.40
26272;DHT22;13997;48.902;12.472;2023-07-09T06:21:08;563.20;2432.00
26272;DHT22;13997;48.902;12.472;2023-07-09T06:23:37;563.40;2432.00
26272;DHT22;13997;48.902;12.472;2023-07-09T06:26:02;563.50;2432.00
26272;DHT22;13997;48.902;12.472;2023-07-09T06:28:28;563.70;2432.00
26272;DHT22;13997;48.902;12.472;2023-07-09T06:30:56;563.80;2432.00
26272;DHT22;13997;48.902;12.472;2023-07-09T06:33:23;563.90;2432.00
26272;DHT22;13997;48.902;12.472;2023-07-09T06:35:51;564.00;2432.00
26272;DHT22;13997;48.902;12.472;2023-07-09T06:38:17;564.10;2432.00
26272;DHT22;13997;48.902;12.472;2023-07-09T06:40:44;564.10;2432.00
26272;DHT22;13997;48.902;12.472;2023-07-09T06:43:10;588.90;2432.00
26272;DHT22;13997;48.902;12.472;2023-07-09T06:45:35;589.00;2432.00
26272;DHT22;13997;48.902;12.472;2023-07-09T06:48:01;589.10;2432.00
26272;DHT22;13997;48.902;12.472;2023-07-09T06:50:27;589.20;2432.00
26272;DHT22;13997;48.902;12.472;2023-07-09T06:52:52;589.40;2432.00
26272;DHT22;13997;48.902;12.472;2023-07-09T06:55:18;589.60;2432.00
26272;DHT22;13997;48.902;12.472;2023-07-09T06:57:44;614.40;2432.00
26272;DHT22;13997;48.902;12.472;2023-07-09T07:00:10;614.50;2432.00
26272;DHT22;13997;48.902;12.472;2023-07-09T07:02:36;614.60;2432.00
26272;DHT22;13997;48.902;12.472;2023-07-09T07:05:02;614.70;2432.00
26272;DHT22;13997;48.902;12.472;2023-07-09T07:07:28;614.80;2432.00
26272;DHT22;13997;48.902;12.472;2023-07-09T07:09:53;614.90;2432.00
26272;DHT22;13997;48.902;12.472;2023-07-09T07:12:27;615.00;2432.00
26272;DHT22;13997;48.902;12.472;2023-07-09T07:14:54;615.00;2432.00
26272;DHT22;13997;48.902;12.472;2023-07-09T07:17:19;615.10;2432.00
26272;DHT22;13997;48.902;12.472;2023-07-09T07:19:45;615.20;2432.00
26272;DHT22;13997;48.902;12.472;2023-07-09T07:22:11;640.10;2432.00
26272;DHT22;13997;48.902;12.472;2023-07-09T07:24:36;640.10;2432.00
26272;DHT22;13997;48.902;12.472;2023-07-09T07:27:03;640.20;2432.00
26272;DHT22;13997;48.902;12.472;2023-07-09T07:29:28;640.30;2432.00
26272;DHT22;13997;48.902;12.472;2023-07-09T07:31:54;640.60;2432.00
26272;DHT22;13997;48.902;12.472;2023-07-09T07:34:20;640.70;2432.00
26272;DHT22;13997;48.902;12.472;2023-07-09T07:36:46;640.80;2432.00
26272;DHT22;13997;48.902;12.472;2023-07-09T07:39:12;640.70;2432.00
26272;DHT22;13997;48.902;12.472;2023-07-09T07:41:38;640.50;2432.00
26272;DHT22;13997;48.902;12.472;2023-07-09T07:44:04;640.20;2432.00
26272;DHT22;13997;48.902;12.472;2023-07-09T07:46:30;640.20;2432.00
26272;DHT22;13997;48.902;12.472;2023-07-09T07:48:58;640.50;2432.00
26272;DHT22;13997;48.902;12.472;2023-07-09T07:51:23;640.50;2432.00
26272;DHT22;13997;48.902;12.472;2023-07-09T07:53:49;640.70;2432.00
26272;DHT22;13997;48.902;12.472;2023-07-09T07:56:14;640.90;2432.00
26272;DHT22;13997;48.902;12.472;2023-07-09T07:58:40;665.70;2432.00
26272;DHT22;13997;48.902;12.472;2023-07-09T08:01:06;666.10;2432.00
26272;DHT22;13997;48.902;12.472;2023-07-09T08:03:31;666.20;2432.00
26272;DHT22;13997;48.902;12.472;2023-07-09T08:05:57;666.40;2432.00
26272;DHT22;13997;48.902;12.472;2023-07-09T08:08:22;691.30;2432.00
26272;DHT22;13997;48.902;12.472;2023-07-09T08:10:50;691.40;2432.00
26272;DHT22;13997;48.902;12.472;2023-07-09T08:13:16;691.30;2432.00
26272;DHT22;13997;48.902;12.472;2023-07-09T08:15:42;691.50;2432.00
26272;DHT22;13997;48.902;12.472;2023-07-09T08:18:08;691.60;2432.00
26272;DHT22;13997;48.902;12.472;2023-07-09T08:20:33;691.60;2432.00
26272;DHT22;13997;48.902;12.472;2023-07-09T08:22:59;691.80;2432.00
26272;DHT22;13997;48.902;12.472;2023-07-09T08:25:25;691.80;2432.00
26272;DHT22;13997;48.902;12.472;2023-07-09T08:27:50;691.80;2432.00
26272;DHT22;13997;48.902;12.472;2023-07-09T08:30:16;691.80;2432.00
26272;DHT22;13997;48.902;12.472;2023-07-09T08:32:41;691.80;2432.00
26272;DHT22;13997;48.902;12.472;2023-07-09T08:35:07;691.90;2432.00
26272;DHT22;13997;48.902;12.472;2023-07-09T08:37:35;692.10;2432.00
26272;DHT22;13997;48.902;12.472;2023-07-09T08:40:01;692.10;2432.00
26272;DHT22;13997;48.902;12.472;2023-07-09T08:42:43;716.90;2432.00
26272;DHT22;13997;48.902;12.472;2023-07-09T08:50:40;717.70;2432.00
26272;DHT22;13997;48.902;12.472;2023-07-09T08:53:21;742.50;2432.00
26272;DHT22;13997;48.902;12.472;2023-07-09T08:55:50;742.60;2432.00
26272;DHT22;13997;48.902;12.472;2023-07-09T08:58:29;742.50;2432.00
26272;DHT22;13997;48.902;12.472;2023-07-09T09:01:00;742.50;2432.00
26272;DHT22;13997;48.902;12.472;2023-07-09T09:03:49;742.50;2432.00
26272;DHT22;13997;48.902;12.472;2023-07-09T09:06:27;742.70;2432.00
26272;DHT22;13997;48.902;12.472;2023-07-09T09:12:14;743.20;2432.00
26272;DHT22;13997;48.902;12.472;2023-07-09T09:14:52;768.10;2432.00
26272;DHT22;13997;48.902;12.472;2023-07-09T09:17:23;768.30;2355.20
26272;DHT22;13997;48.902;12.472;2023-07-09T09:20:02;768.60;2432.00
26272;DHT22;13997;48.902;12.472;2023-07-09T09:22:54;768.60;2432.00
26272;DHT22;13997;48.902;12.472;2023-07-09T09:25:29;768.70;2380.80
26272;DHT22;13997;48.902;12.472;2023-07-09T09:27:56;768.70;2355.20
26272;DHT22;13997;48.902;12.472;2023-07-09T09:30:23;768.80;2406.40
26272;DHT22;13997;48.902;12.472;2023-07-09T09:33:02;793.70;2432.00
26272;DHT22;13997;48.902;12.472;2023-07-09T09:35:41;793.70;2406.40
26272;DHT22;13997;48.902;12.472;2023-07-09T09:38:12;793.90;2304.00
26272;DHT22;13997;48.902;12.472;2023-07-09T09:40:38;794.10;2329.60
26272;DHT22;13997;48.902;12.472;2023-07-09T09:43:15;794.30;2227.20
26272;DHT22;13997;48.902;12.472;2023-07-09T09:45:43;819.20;2227.20
26272;DHT22;13997;48.902;12.472;2023-07-09T09:48:26;819.30;2124.80
26272;DHT22;13997;48.902;12.472;2023-07-09T09:50:52;819.40;2073.60
26272;DHT22;13997;48.902;12.472;2023-07-09T09:53:23;819.50;2022.40
26272;DHT22;13997;48.902;12.472;2023-07-09T09:55:49;819.70;2099.20
26272;DHT22;13997;48.902;12.472;2023-07-09T09:58:17;819.70;2022.40
26272;DHT22;13997;48.902;12.472;2023-07-09T10:00:51;819.80;2048.00
26272;DHT22;13997;48.902;12.472;2023-07-09T10:03:17;819.80;1894.40
26272;DHT22;13997;48.902;12.472;2023-07-09T10:05:48;819.20;1920.00
26272;DHT22;13997;48.902;12.472;2023-07-09T10:08:28;819.30;1945.60
26272;DHT22;13997;48.902;12.472;2023-07-09T10:11:29;819.40;1843.20
26272;DHT22;13997;48.902;12.472;2023-07-09T10:13:55;819.20;1894.40
26272;DHT22;13997;48.902;12.472;2023-07-09T10:16:25;819.40;1920.00
26272;DHT22;13997;48.902;12.472;2023-07-09T10:21:51;819.80;1843.20
26272;DHT22;13997;48.902;12.472;2023-07-09T10:29:52;820.10;1792.00
26272;DHT22;13997;48.902;12.472;2023-07-09T10:35:21;845.30;1715.20
26272;DHT22;13997;48.902;12.472;2023-07-09T10:38:59;845.60;1715.20
26272;DHT22;13997;48.902;12.472;2023-07-09T10:41:16;845.70;1740.80
26272;DHT22;13997;48.902;12.472;2023-07-09T10:43:48;870.50;1689.60
26272;DHT22;13997;48.902;12.472;2023-07-09T10:46:18;870.50;1689.60
26272;DHT22;13997;48.902;12.472;2023-07-09T10:48:54;870.50;1638.40
26272;DHT22;13997;48.902;12.472;2023-07-09T10:51:25;870.70;1561.60
26272;DHT22;13997;48.902;12.472;2023-07-09T10:57:18;870.80;1510.40
26272;DHT22;13997;48.902;12.472;2023-07-09T10:59:48;870.80;1536.00
26272;DHT22;13997;48.902;12.472;2023-07-09T11:02:33;870.90;1459.20
26272;DHT22;13997;48.902;12.472;2023-07-09T11:05:01;871.00;1510.40
26272;DHT22;13997;48.902;12.472;2023-07-09T11:07:32;871.10;1484.80
26272;DHT22;13997;48.902;12.472;2023-07-09T11:09:59;871.20;1382.40
26272;DHT22;13997;48.902;12.472;2023-07-09T11:12:39;871.30;1408.00
26272;DHT22;13997;48.902;12.472;2023-07-09T11:15:30;871.30;1356.80
26272;DHT22;13997;48.902;12.472;2023-07-09T11:17:57;871.10;1356.80
26272;DHT22;13997;48.902;12.472;2023-07-09T11:20:35;870.90;1331.20
26272;DHT22;13997;48.902;12.472;2023-07-09T11:23:20;870.70;1408.00
26272;DHT22;13997;48.902;12.472;2023-07-09T11:28:52;871.00;1331.20
26272;DHT22;13997;48.902;12.472;2023-07-09T11:31:22;871.20;1408.00
26272;DHT22;13997;48.902;12.472;2023-07-09T11:34:09;896.10;1280.00
26272;DHT22;13997;48.902;12.472;2023-07-09T11:36:47;896.10;1305.60
26272;DHT22;13997;48.902;12.472;2023-07-09T11:44:58;871.10;1305.60
26272;DHT22;13997;48.902;12.472;2023-07-09T11:47:30;871.00;1228.80
26272;DHT22;13997;48.902;12.472;2023-07-09T11:50:01;870.90;1254.40
26272;DHT22;13997;48.902;12.472;2023-07-09T11:52:42;870.90;1254.40
26272;DHT22;13997;48.902;12.472;2023-07-09T11:55:29;870.90;1280.00
26272;DHT22;13997;48.902;12.472;2023-07-09T11:58:00;871.00;1305.60
26272;DHT22;13997;48.902;12.472;2023-07-09T12:00:30;871.30;1280.00
26272;DHT22;13997;48.902;12.472;2023-07-09T12:03:00;871.30;1228.80
26272;DHT22;13997;48.902;12.472;2023-07-09T12:05:34;871.30;1177.60
26272;DHT22;13997;48.902;12.472;2023-07-09T12:08:00;871.30;1254.40
26272;DHT22;13997;48.902;12.472;2023-07-09T12:10:31;871.30;1228.80
26272;DHT22;13997;48.902;12.472;2023-07-09T12:12:57;871.30;1254.40
26272;DHT22;13997;48.902;12.472;2023-07-09T12:15:26;896.10;1203.20
26272;DHT22;13997;48.902;12.472;2023-07-09T12:18:01;896.10;1203.20
26272;DHT22;13997;48.902;12.472;2023-07-09T12:20:34;896.20;1152.00
26272;DHT22;13997;48.902;12.472;2023-07-09T12:23:20;896.50;1228.80
26272;DHT22;13997;48.902;12.472;2023-07-09T12:25:51;896.40;1177.60
26272;DHT22;13997;48.902;12.472;2023-07-09T12:28:18;896.50;1177.60
26272;DHT22;13997;48.902;12.472;2023-07-09T12:30:51;896.50;1152.00
26272;DHT22;13997;48.902;12.472;2023-07-09T12:33:26;896.50;1126.40
26272;DHT22;13997;48.902;12.472;2023-07-09T12:36:04;896.50;1177.60
26272;DHT22;13997;48.902;12.472;2023-07-09T12:38:43;896.40;1126.40
26272;DHT22;13997;48.902;12.472;2023-07-09T12:41:39;896.40;1126.40
26272;DHT22;13997;48.902;12.472;2023-07-09T12:44:13;896.60;1203.20
26272;DHT22;13997;48.902;12.472;2023-07-09T12:46:40;896.70;1152.00
26272;DHT22;13997;48.902;12.472;2023-07-09T12:49:06;896.40;1152.00
26272;DHT22;13997;48.902;12.472;2023-07-09T12:51:32;896.10;1126.40
26272;DHT22;13997;48.902;12.472;2023-07-09T12:54:13;896.20;1228.80
26272;DHT22;13997;48.902;12.472;2023-07-09T12:56:39;896.50;1177.60
26272;DHT22;13997;48.902;12.472;2023-07-09T13:01:57;896.20;1075.20
26272;DHT22;13997;48.902;12.472;2023-07-09T13:04:31;896.20;1126.40
26272;DHT22;13997;48.902;12.472;2023-07-09T13:06:57;896.20;1152.00
26272;DHT22;13997;48.902;12.472;2023-07-09T13:09:26;896.10;1100.80
26272;DHT22;13997;48.902;12.472;2023-07-09T13:11:54;896.10;1126.40
26272;DHT22;13997;48.902;12.472;2023-07-09T13:14:37;871.30;1126.40
26272;DHT22;13997;48.902;12.472;2023-07-09T13:17:07;871.30;1075.20
26272;DHT22;13997;48.902;12.472;2023-07-09T13:19:34;896.00;1152.00
26272;DHT22;13997;48.902;12.472;2023-07-09T13:22:01;871.30;1126.40
26272;DHT22;13997;48.902;12.472;2023-07-09T13:24:30;870.90;1100.80
26272;DHT22;13997;48.902;12.472;2023-07-09T13:26:56;871.20;1126.40
26272;DHT22;13997;48.902;12.472;2023-07-09T13:29:25;871.30;1126.40
26272;DHT22;13997;48.902;12.472;2023-07-09T13:31:51;896.00;1075.20
26272;DHT22;13997;48.902;12.472;2023-07-09T13:34:28;896.00;1075.20
26272;DHT22;13997;48.902;12.472;2023-07-09T13:36:56;896.10;1100.80
26272;DHT22;13997;48.902;12.472;2023-07-09T13:39:23;896.20;1177.60
26272;DHT22;13997;48.902;12.472;2023-07-09T13:41:50;896.50;1177.60
26272;DHT22;13997;48.902;12.472;2023-07-09T13:44:25;896.80;1152.00
26272;DHT22;13997;48.902;12.472;2023-07-09T13:46:52;896.80;1152.00
26272;DHT22;13997;48.902;12.472;2023-07-09T13:49:19;896.60;1100.80
26272;DHT22;13997;48.902;12.472;2023-07-09T13:51:50;896.60;1075.20
26272;DHT22;13997;48.902;12.472;2023-07-09T13:54:19;896.80;1075.20
26272;DHT22;13997;48.902;12.472;2023-07-09T13:56:45;921.60;1126.40
26272;DHT22;13997;48.902;12.472;2023-07-09T13:59:22;921.60;1075.20
26272;DHT22;13997;48.902;12.472;2023-07-09T14:01:50;921.60;1075.20
26272;DHT22;13997;48.902;12.472;2023-07-09T14:04:17;896.70;1049.60
26272;DHT22;13997;48.902;12.472;2023-07-09T14:06:44;896.70;1100.80
26272;DHT22;13997;48.902;12.472;2023-07-09T14:09:11;896.80;1100.80
26272;DHT22;13997;48.902;12.472;2023-07-09T14:11:43;896.90;1100.80
26272;DHT22;13997;48.902;12.472;2023-07-09T14:14:16;896.80;1100.80
26272;DHT22;13997;48.902;12.472;2023-07-09T14:16:42;896.90;1152.00
26272;DHT22;13997;48.902;12.472;2023-07-09T14:19:19;896.90;1100.80
26272;DHT22;13997;48.902;12.472;2023-07-09T14:21:45;896.80;1075.20
26272;DHT22;13997;48.902;12.472;2023-07-09T14:24:28;921.60;1126.40
26272;DHT22;13997;48.902;12.472;2023-07-09T14:26:56;921.80;1152.00
26272;DHT22;13997;48.902;12.472;2023-07-09T14:29:23;921.80;1126.40
26272;DHT22;13997;48.902;12.472;2023-07-09T14:31:49;921.70;1126.40
26272;DHT22;13997;48.902;12.472;2023-07-09T14:36:40;896.80;1100.80
26272;DHT22;13997;48.902;12.472;2023-07-09T14:39:09;896.80;1100.80
26272;DHT22;13997;48.902;12.472;2023-07-09T14:41:36;896.80;1049.60
26272;DHT22;13997;48.902;12.472;2023-07-09T14:44:02;896.80;1075.20
26272;DHT22;13997;48.902;12.472;2023-07-09T14:46:28;896.70;1049.60
26272;DHT22;13997;48.902;12.472;2023-07-09T14:48:53;896.80;1100.80
26272;DHT22;13997;48.902;12.472;2023-07-09T14:51:19;896.80;1075.20
26272;DHT22;13997;48.902;12.472;2023-07-09T14:53:45;896.50;998.40
26272;DHT22;13997;48.902;12.472;2023-07-09T14:56:13;896.50;1024.00
26272;DHT22;13997;48.902;12.472;2023-07-09T14:58:39;896.40;1049.60
26272;DHT22;13997;48.902;12.472;2023-07-09T15:01:05;896.20;1049.60
26272;DHT22;13997;48.902;12.472;2023-07-09T15:03:30;896.10;1075.20
26272;DHT22;13997;48.902;12.472;2023-07-09T15:05:56;871.20;1075.20
26272;DHT22;13997;48.902;12.472;2023-07-09T15:08:23;871.20;1049.60
26272;DHT22;13997;48.902;12.472;2023-07-09T15:10:51;871.30;1075.20
26272;DHT22;13997;48.902;12.472;2023-07-09T15:13:33;896.00;1100.80
26272;DHT22;13997;48.902;12.472;2023-07-09T15:16:00;896.10;1100.80
26272;DHT22;13997;48.902;12.472;2023-07-09T15:18:26;896.10;1075.20
26272;DHT22;13997;48.902;12.472;2023-07-09T15:20:54;896.10;1100.80
26272;DHT22;13997;48.902;12.472;2023-07-09T15:23:20;896.10;1100.80
26272;DHT22;13997;48.902;12.472;2023-07-09T15:25:50;896.10;1100.80
26272;DHT22;13997;48.902;12.472;2023-07-09T15:28:16;871.30;1075.20